Time;durP1;ratioP1;P1;durP2;ratioP2;P2;SDS_P1;SDS_P2;PMS_P1;PMS_P2;Temp;Humidity;BMP_temperature;BMP_pressure;BME280_temperature;BME280_humidity;BME280_pressure;Samples;Min_cycle;Max_cycle;Signal;HPM_P1;HPM_P2
2022/06/03 00:02:36;;;;;;;6.57;3.70;;;13.70;99.90;;;;;;5032462;28;20041;-74
2022/06/03 00:05:44;;;;;;;5.20;4.10;;;13.40;99.90;;;;;;5029442;28;20064;-77
2022/06/03 00:08:26;;;;;;;5.40;2.75;;;13.20;99.90;;;;;;5032029;28;20021;-73
2022/06/03 00:11:25;;;;;;;5.20;3.17;;;13.20;99.90;;;;;;5030919;28;20407;-76
2022/06/03 00:14:33;;;;;;;5.63;3.63;;;13.10;99.90;;;;;;5031962;28;20041;-80
2022/06/03 00:17:37;;;;;;;5.00;3.50;;;12.80;99.90;;;;;;5038037;28;20410;-79
2022/06/03 00:20:19;;;;;;;6.93;4.63;;;12.70;99.90;;;;;;5034322;28;20052;-74
2022/06/03 00:23:09;;;;;;;7.43;4.50;;;12.70;99.90;;;;;;5033122;28;20032;-75
2022/06/03 00:26:21;;;;;;;6.75;4.13;;;12.70;99.90;;;;;;5040443;28;20097;-75
2022/06/03 00:29:03;;;;;;;10.73;5.28;;;12.80;99.90;;;;;;5037696;28;20104;-76
2022/06/03 00:31:46;;;;;;;9.60;4.00;;;12.70;99.90;;;;;;5033843;28;20060;-78
2022/06/03 00:34:40;;;;;;;5.90;3.90;;;12.80;99.90;;;;;;5037384;28;20470;-78
2022/06/03 00:37:22;;;;;;;6.45;3.95;;;13.10;99.90;;;;;;5050632;28;20036;-77
2022/06/03 00:39:54;;;;;;;6.43;4.60;;;13.30;99.90;;;;;;5051241;28;20029;-82
2022/06/03 00:42:58;;;;;;;8.32;4.00;;;13.20;99.90;;;;;;5045732;28;20033;-75
2022/06/03 00:45:44;;;;;;;6.78;4.22;;;13.30;99.90;;;;;;5042858;28;20020;-71
2022/06/03 00:48:23;;;;;;;5.38;3.85;;;13.30;99.90;;;;;;5034983;28;20034;-81
2022/06/03 00:51:09;;;;;;;4.53;3.60;;;13.20;99.90;;;;;;5044031;28;20402;-87
2022/06/03 00:53:51;;;;;;;5.67;4.00;;;13.30;99.90;;;;;;5037402;28;20455;-75
2022/06/03 00:56:48;;;;;;;4.80;3.80;;;13.30;99.90;;;;;;5035822;28;20400;-74
2022/06/03 00:59:53;;;;;;;6.22;4.38;;;13.30;99.90;;;;;;5036723;28;20119;-78
2022/06/03 01:02:20;;;;;;;6.68;4.28;;;13.40;99.90;;;;;;5039196;28;20111;-75
2022/06/03 01:05:12;;;;;;;4.85;3.67;;;13.40;99.90;;;;;;5039218;28;20056;-75
2022/06/03 01:07:53;;;;;;;4.70;3.72;;;13.30;99.90;;;;;;5038208;28;20036;-74
2022/06/03 01:10:32;;;;;;;7.65;4.30;;;13.30;99.90;;;;;;5043004;28;20029;-74
2022/06/03 01:13:06;;;;;;;6.13;3.78;;;13.30;99.90;;;;;;5033481;28;20063;-74
2022/06/03 01:15:41;;;;;;;5.00;4.15;;;13.50;99.90;;;;;;5042052;28;20535;-77
2022/06/03 01:18:12;;;;;;;;;;;13.70;99.90;;;;;;5039786;28;20052;-76
2022/06/03 01:21:01;;;;;;;3.65;3.05;;;13.80;99.90;;;;;;5046081;28;19909;-80
2022/06/03 01:24:05;;;;;;;6.13;3.42;;;14.00;99.90;;;;;;5035948;28;20025;-77
2022/06/03 01:27:02;;;;;;;6.18;3.15;;;14.10;99.90;;;;;;5044354;28;20040;-74
2022/06/03 01:29:45;;;;;;;3.63;2.33;;;14.10;99.90;;;;;;5035712;28;20071;-78
2022/06/03 01:32:31;;;;;;;3.90;2.53;;;14.20;99.90;;;;;;5039100;28;20108;-75
2022/06/03 01:35:04;;;;;;;4.40;2.33;;;14.10;99.90;;;;;;5045820;28;20049;-81
2022/06/03 01:37:47;;;;;;;3.95;3.13;;;14.10;99.90;;;;;;5048438;28;20083;-78
2022/06/03 01:40:32;;;;;;;4.07;2.20;;;14.10;99.90;;;;;;5041898;28;20029;-84
2022/06/03 01:43:09;;;;;;;3.87;2.47;;;14.80;99.90;;;;;;5045247;28;20075;-81
2022/06/03 01:45:56;;;;;;;3.00;2.63;;;15.80;99.90;;;;;;5048513;28;20026;-82
2022/06/03 01:48:35;;;;;;;4.85;2.75;;;16.80;99.30;;;;;;5032943;28;20497;-79
2022/06/03 01:51:14;;;;;;;3.88;2.65;;;18.20;97.70;;;;;;5041369;28;20033;-82
2022/06/03 01:54:02;;;;;;;4.15;1.70;;;19.20;96.30;;;;;;5048922;28;20045;-76
2022/06/03 01:56:45;;;;;;;4.05;2.00;;;18.90;94.30;;;;;;5049181;28;20048;-80
2022/06/03 01:59:30;;;;;;;5.82;1.88;;;18.00;95.50;;;;;;5033940;28;20112;-78
2022/06/03 02:02:45;;;;;;;3.30;1.83;;;17.50;95.50;;;;;;5033747;28;20040;-79
2022/06/03 02:05:27;;;;;;;4.45;1.85;;;16.60;96.90;;;;;;5013120;28;20610;-74
2022/06/03 02:08:06;;;;;;;4.22;1.60;;;16.70;97.80;;;;;;5040263;28;20041;-76
2022/06/03 02:10:58;;;;;;;3.38;1.70;;;16.70;97.20;;;;;;5031055;28;20105;-74
2022/06/03 02:14:06;;;;;;;6.40;2.22;;;16.50;97.20;;;;;;5040627;28;20063;-74
2022/06/03 02:17:09;;;;;;;3.25;1.65;;;16.40;98.00;;;;;;5030955;28;20025;-74
2022/06/03 02:20:01;;;;;;;3.75;1.52;;;16.70;97.00;;;;;;5042662;28;20367;-75
2022/06/03 02:22:31;;;;;;;4.60;1.65;;;16.60;97.00;;;;;;5048003;28;20433;-75
2022/06/03 02:25:08;;;;;;;2.35;1.80;;;16.50;97.60;;;;;;5047683;28;20029;-78
2022/06/03 02:27:48;;;;;;;4.22;1.15;;;16.70;97.80;;;;;;5037257;28;20373;-77
2022/06/03 02:30:31;;;;;;;3.42;1.30;;;17.40;97.50;;;;;;5036695;28;20119;-73
2022/06/03 02:33:38;;;;;;;3.80;1.48;;;18.40;95.80;;;;;;5039878;28;20028;-78
2022/06/03 02:36:26;;;;;;;3.83;1.77;;;17.60;95.40;;;;;;5036250;28;20127;-77
2022/06/03 02:39:26;;;;;;;1.40;1.20;;;16.70;97.30;;;;;;5037921;28;20045;-76
2022/06/03 02:42:17;;;;;;;4.32;1.63;;;16.30;97.40;;;;;;5040139;28;20064;-77
2022/06/03 02:44:57;;;;;;;2.78;1.50;;;15.90;97.30;;;;;;5037117;28;20170;-78
2022/06/03 02:47:44;;;;;;;3.83;1.25;;;15.60;98.40;;;;;;5032138;28;20037;-74
2022/06/03 02:50:26;;;;;;;2.78;1.02;;;15.50;98.40;;;;;;5035203;28;20045;-74
2022/06/03 02:53:41;;;;;;;2.70;1.17;;;15.40;98.60;;;;;;5037871;28;20021;-75
2022/06/03 02:56:14;;;;;;;3.75;1.50;;;15.70;98.60;;;;;;5040701;28;20037;-82
2022/06/03 02:59:12;;;;;;;4.20;1.15;;;15.80;98.20;;;;;;5036191;28;20025;-83
2022/06/03 03:01:49;;;;;;;5.60;1.55;;;15.80;98.90;;;;;;5041625;28;20032;-79
2022/06/03 03:04:41;;;;;;;2.95;1.20;;;15.70;98.60;;;;;;5043028;28;20033;-80
2022/06/03 03:07:35;;;;;;;1.60;0.77;;;15.40;98.80;;;;;;5031957;28;20091;-79
2022/06/03 03:10:15;;;;;;;3.78;1.02;;;15.10;99.00;;;;;;5035838;28;20104;-76
2022/06/03 03:13:12;;;;;;;3.47;1.20;;;14.90;99.80;;;;;;5030116;28;20099;-76
2022/06/03 03:15:59;;;;;;;;;;;14.80;99.80;;;;;;5029632;28;20053;-69
2022/06/03 03:19:01;;;;;;;2.05;1.10;;;14.80;99.90;;;;;;5041915;28;19916;-77
2022/06/03 03:21:31;;;;;;;3.15;1.08;;;14.70;99.90;;;;;;5009052;28;20506;-76
2022/06/03 03:24:19;;;;;;;3.15;1.15;;;14.60;99.90;;;;;;5039856;28;20044;-73
2022/06/03 03:27:10;;;;;;;1.77;0.77;;;14.60;99.90;;;;;;5046612;28;20037;-72
2022/06/03 03:29:53;;;;;;;3.85;0.98;;;14.60;99.90;;;;;;5035578;28;20140;-72
2022/06/03 03:32:45;;;;;;;3.20;1.15;;;14.60;99.90;;;;;;5044209;28;20029;-73
2022/06/03 03:35:44;;;;;;;3.53;1.52;;;14.50;99.90;;;;;;5037627;28;20496;-72
2022/06/03 03:38:23;;;;;;;2.00;1.20;;;14.50;99.90;;;;;;5039018;28;20061;-72
2022/06/03 03:41:12;;;;;;;1.73;0.80;;;14.50;99.90;;;;;;5030058;28;20041;-71
2022/06/03 03:44:00;;;;;;;1.42;0.80;;;14.50;99.90;;;;;;5031858;28;20475;-73
2022/06/03 03:47:02;;;;;;;2.85;0.93;;;14.50;99.90;;;;;;5033833;28;20021;-72
2022/06/03 03:49:39;;;;;;;1.48;0.82;;;14.60;99.90;;;;;;5031123;28;20053;-71
2022/06/03 03:52:32;;;;;;;5.35;1.08;;;14.50;99.90;;;;;;5037141;28;20029;-71
2022/06/03 03:55:26;;;;;;;1.70;0.70;;;14.50;99.90;;;;;;5033688;28;20038;-70
2022/06/03 03:57:53;;;;;;;1.92;0.80;;;14.30;99.90;;;;;;5038453;28;20036;-72
2022/06/03 04:01:11;;;;;;;2.15;0.70;;;14.20;99.90;;;;;;5046430;28;20029;-71
2022/06/03 04:04:00;;;;;;;2.45;0.90;;;14.20;99.90;;;;;;5023468;28;20064;-71
2022/06/03 04:06:45;;;;;;;1.60;0.90;;;14.10;99.90;;;;;;5032794;28;20064;-70
2022/06/03 04:09:22;;;;;;;2.92;1.23;;;14.10;99.90;;;;;;5036595;28;20024;-71
2022/06/03 04:12:07;;;;;;;2.22;1.00;;;14.00;99.90;;;;;;5033232;28;20107;-74
2022/06/03 04:14:59;;;;;;;1.40;0.85;;;14.00;99.90;;;;;;5033326;28;20036;-71
2022/06/03 04:17:50;;;;;;;2.00;1.23;;;14.00;99.90;;;;;;5047850;28;20064;-71
2022/06/03 04:20:45;;;;;;;2.35;0.98;;;14.00;99.90;;;;;;5036443;28;20029;-71
2022/06/03 04:23:40;;;;;;;2.90;0.70;;;14.00;99.90;;;;;;5030707;28;20355;-70
2022/06/03 04:26:35;;;;;;;2.42;0.95;;;14.00;99.90;;;;;;5040178;28;20041;-71
2022/06/03 04:29:43;;;;;;;1.33;0.85;;;14.10;99.90;;;;;;5025104;28;20166;-71
2022/06/03 04:32:24;;;;;;;2.90;1.00;;;14.00;99.90;;;;;;5042135;28;20021;-71
2022/06/03 04:35:24;;;;;;;2.90;0.77;;;14.10;99.90;;;;;;5037609;28;20341;-70
2022/06/03 04:38:01;;;;;;;4.82;1.23;;;14.00;99.90;;;;;;5035162;28;20021;-71
2022/06/03 04:40:28;;;;;;;2.55;0.90;;;14.00;99.90;;;;;;5037513;28;20112;-71
2022/06/03 04:43:13;;;;;;;1.15;0.77;;;14.00;99.90;;;;;;5039196;28;20462;-71
2022/06/03 04:45:59;;;;;;;4.90;0.88;;;13.90;99.90;;;;;;5043706;28;20026;-70
2022/06/03 04:49:02;;;;;;;3.92;0.82;;;13.90;99.90;;;;;;5041927;28;20056;-71
2022/06/03 04:51:53;;;;;;;2.08;0.70;;;13.80;99.90;;;;;;5030025;28;20029;-72
2022/06/03 04:54:57;;;;;;;2.83;1.30;;;13.80;99.90;;;;;;5038056;28;20039;-71
2022/06/03 04:57:29;;;;;;;3.35;1.35;;;13.70;99.90;;;;;;5041480;28;20034;-72
2022/06/03 05:00:26;;;;;;;4.60;1.25;;;13.70;99.90;;;;;;5035308;28;20029;-71
2022/06/03 05:03:32;;;;;;;2.13;1.05;;;13.70;99.90;;;;;;5047069;28;20029;-72
2022/06/03 05:06:24;;;;;;;2.40;1.00;;;13.70;99.90;;;;;;5032389;28;20049;-72
2022/06/03 05:09:27;;;;;;;1.30;0.88;;;13.80;99.90;;;;;;5038308;28;20029;-71
2022/06/03 05:12:17;;;;;;;1.80;0.90;;;13.70;99.90;;;;;;5035422;28;20090;-70
2022/06/03 05:15:06;;;;;;;1.90;1.25;;;13.70;99.90;;;;;;5042474;28;20040;-72
2022/06/03 05:17:52;;;;;;;1.60;0.65;;;13.70;99.90;;;;;;5032197;28;20033;-73
2022/06/03 05:20:56;;;;;;;2.00;0.90;;;13.70;99.90;;;;;;5051620;28;20470;-71
2022/06/03 05:23:35;;;;;;;1.58;0.80;;;13.70;99.90;;;;;;5044473;28;20368;-72
2022/06/03 05:26:36;;;;;;;3.00;0.90;;;13.70;99.90;;;;;;5047502;28;20021;-71
2022/06/03 05:29:15;;;;;;;1.30;0.70;;;13.70;99.90;;;;;;5041673;28;20052;-74
2022/06/03 05:32:24;;;;;;;3.70;0.70;;;13.70;99.90;;;;;;5039114;28;20507;-72
2022/06/03 05:35:05;;;;;;;3.97;0.73;;;13.70;99.90;;;;;;5027683;28;20049;-73
2022/06/03 05:37:54;;;;;;;0.98;0.82;;;13.70;99.90;;;;;;5030852;28;20368;-73
2022/06/03 05:40:39;;;;;;;2.03;0.82;;;13.70;99.90;;;;;;5041930;28;20029;-74
2022/06/03 05:43:19;;;;;;;1.65;1.23;;;13.70;99.90;;;;;;5031346;28;20079;-72
2022/06/03 05:45:50;;;;;;;4.32;0.80;;;13.70;99.90;;;;;;5032603;28;20071;-74
2022/06/03 05:48:44;;;;;;;4.80;0.70;;;13.70;99.90;;;;;;5036506;28;20040;-75
2022/06/03 05:51:33;;;;;;;2.50;0.98;;;13.70;99.90;;;;;;5043703;28;20033;-73
2022/06/03 05:54:21;;;;;;;1.88;0.80;;;13.70;99.90;;;;;;5035074;28;20437;-73
2022/06/03 05:56:58;;;;;;;0.80;0.50;;;13.70;99.90;;;;;;5044914;28;20041;-73
2022/06/03 05:59:40;;;;;;;2.20;0.60;;;13.60;99.90;;;;;;5051728;28;20053;-75
2022/06/03 06:02:38;;;;;;;2.05;0.80;;;13.70;99.90;;;;;;5035208;28;20029;-73
2022/06/03 06:05:40;;;;;;;0.98;0.60;;;13.60;99.90;;;;;;5048148;28;20410;-73
2022/06/03 06:08:36;;;;;;;1.98;0.40;;;13.60;99.90;;;;;;5035904;28;20514;-73
2022/06/03 06:11:17;;;;;;;2.22;0.80;;;13.60;99.90;;;;;;5044594;28;20483;-74
2022/06/03 06:14:23;;;;;;;10.07;2.05;;;13.60;99.90;;;;;;5038696;28;20493;-71
2022/06/03 06:16:56;;;;;;;1.75;0.90;;;13.60;99.90;;;;;;5037897;28;20030;-73
2022/06/03 06:19:37;;;;;;;1.95;0.82;;;13.50;99.90;;;;;;5036500;28;20040;-72
2022/06/03 06:22:29;;;;;;;1.77;0.85;;;13.60;99.90;;;;;;5035224;28;20464;-72
2022/06/03 06:25:03;;;;;;;5.10;0.95;;;13.50;99.90;;;;;;5031650;28;20028;-73
2022/06/03 06:27:49;;;;;;;3.70;0.85;;;13.50;99.90;;;;;;5038416;28;20040;-73
2022/06/03 06:30:25;;;;;;;;;;;13.40;99.90;;;;;;5049334;28;20061;-71
2022/06/03 06:33:15;;;;;;;2.35;0.70;;;13.30;99.90;;;;;;5050873;28;19905;-73
2022/06/03 06:35:55;;;;;;;1.98;0.68;;;13.30;99.90;;;;;;5042214;28;20049;-74
2022/06/03 06:38:40;;;;;;;1.00;0.57;;;13.20;99.90;;;;;;5031291;28;20085;-75
2022/06/03 06:41:38;;;;;;;1.80;0.60;;;13.20;99.90;;;;;;5041265;28;20021;-74
2022/06/03 06:44:07;;;;;;;1.15;0.65;;;13.10;99.90;;;;;;5045548;28;20395;-75
2022/06/03 06:46:42;;;;;;;0.82;0.60;;;13.00;99.90;;;;;;5043594;28;20107;-73
2022/06/03 06:49:12;;;;;;;0.98;0.43;;;13.00;99.90;;;;;;5033431;28;20573;-73
2022/06/03 06:52:04;;;;;;;2.15;1.10;;;13.00;99.90;;;;;;5037235;28;20037;-74
2022/06/03 06:54:41;;;;;;;1.25;0.82;;;12.90;99.90;;;;;;5047040;28;20036;-74
2022/06/03 06:57:14;;;;;;;1.50;0.55;;;12.80;99.90;;;;;;5041041;28;20140;-73
2022/06/03 06:59:53;;;;;;;2.90;0.88;;;12.80;99.90;;;;;;5035705;28;20470;-74
2022/06/03 07:02:37;;;;;;;1.35;0.75;;;12.70;99.90;;;;;;5034467;28;20095;-74
2022/06/03 07:05:15;;;;;;;1.55;0.52;;;12.70;99.90;;;;;;5042378;28;20053;-73
2022/06/03 07:07:48;;;;;;;4.40;0.75;;;12.60;99.90;;;;;;5039401;28;20565;-75
2022/06/03 07:10:35;;;;;;;1.30;0.50;;;12.60;99.90;;;;;;5042389;28;20163;-75
2022/06/03 07:13:05;;;;;;;4.05;1.45;;;12.50;99.90;;;;;;5046307;28;20103;-73
2022/06/03 07:15:59;;;;;;;1.33;0.43;;;12.50;99.90;;;;;;5044979;28;20492;-73
2022/06/03 07:22:05;;;;;;;1.13;0.50;;;12.40;99.90;;;;;;5036833;28;20048;-74
2022/06/03 07:24:53;;;;;;;1.65;0.93;;;12.30;99.90;;;;;;5035908;28;20040;-75
2022/06/03 07:27:56;;;;;;;1.05;0.55;;;12.20;99.90;;;;;;5033555;28;20025;-74
2022/06/03 07:30:33;;;;;;;2.03;0.40;;;12.20;99.90;;;;;;5030206;28;20060;-75
2022/06/03 07:33:30;;;;;;;2.35;1.27;;;12.20;99.90;;;;;;5049497;28;20029;-75
2022/06/03 07:36:05;;;;;;;8.13;4.18;;;12.10;99.90;;;;;;5041230;28;20570;-73
2022/06/03 07:38:45;;;;;;;2.80;1.30;;;12.10;99.90;;;;;;5037482;28;20475;-74
2022/06/03 07:41:31;;;;;;;4.72;1.63;;;12.00;99.90;;;;;;5032474;28;20020;-75
2022/06/03 07:44:08;;;;;;;4.30;1.08;;;12.00;99.90;;;;;;5038592;28;20043;-76
2022/06/03 07:47:02;;;;;;;9.20;4.03;;;12.10;99.90;;;;;;5041088;28;20446;-76
2022/06/03 07:49:35;;;;;;;2.15;1.33;;;12.00;99.90;;;;;;5038962;28;20065;-77
2022/06/03 07:52:32;;;;;;;10.00;4.38;;;12.00;99.90;;;;;;5041834;28;20025;-74
2022/06/03 07:55:05;;;;;;;5.03;1.60;;;12.00;99.90;;;;;;5036858;28;20041;-74
2022/06/03 07:57:33;;;;;;;3.40;0.80;;;12.00;99.90;;;;;;5033802;28;20079;-76
2022/06/03 08:00:04;;;;;;;1.85;0.40;;;12.00;99.90;;;;;;5040060;28;20056;-72
2022/06/03 08:02:32;;;;;;;1.98;0.50;;;12.00;99.90;;;;;;5034615;28;20021;-72
2022/06/03 08:05:17;;;;;;;1.42;0.57;;;12.10;99.90;;;;;;5039695;28;20107;-73
2022/06/03 08:10:58;;;;;;;1.88;0.70;;;12.00;99.90;;;;;;5033432;28;20109;-73
2022/06/03 08:13:44;;;;;;;2.70;0.60;;;12.00;99.90;;;;;;5030157;28;20045;-73
2022/06/03 08:16:19;;;;;;;0.60;0.30;;;12.00;99.90;;;;;;5045902;28;20033;-74
2022/06/03 08:18:47;;;;;;;1.88;0.65;;;12.00;99.90;;;;;;5039327;28;20308;-74
2022/06/03 08:21:41;;;;;;;1.13;0.60;;;12.00;99.90;;;;;;5039569;28;20052;-74
2022/06/03 08:24:12;;;;;;;4.45;0.40;;;12.00;99.90;;;;;;5030414;28;20033;-74
2022/06/03 08:26:42;;;;;;;2.58;0.70;;;12.00;99.90;;;;;;5033242;28;20034;-73
2022/06/03 08:29:33;;;;;;;3.92;0.80;;;12.00;99.90;;;;;;5030037;28;20506;-73
2022/06/03 08:32:05;;;;;;;1.55;0.80;;;11.90;99.90;;;;;;5030236;28;20112;-73
2022/06/03 08:34:38;;;;;;;2.42;1.40;;;11.90;99.90;;;;;;5029003;28;20136;-73
2022/06/03 08:37:09;;;;;;;1.95;1.00;;;11.90;99.90;;;;;;5036981;28;20359;-73
2022/06/03 08:39:40;;;;;;;1.35;0.93;;;11.90;99.90;;;;;;5048347;28;20118;-74
2022/06/03 08:42:15;;;;;;;1.92;1.08;;;11.90;99.90;;;;;;5054019;28;20163;-74
2022/06/03 08:44:47;;;;;;;1.90;1.13;;;11.90;99.90;;;;;;5051454;28;20025;-72
2022/06/03 08:47:31;;;;;;;2.30;0.98;;;11.80;99.90;;;;;;5040318;28;20172;-74
2022/06/03 08:50:42;;;;;;;0.85;0.40;;;11.80;99.90;;;;;;5034106;28;20404;-73
2022/06/03 08:53:36;;;;;;;2.60;0.88;;;11.80;99.90;;;;;;5044232;28;20038;-73
2022/06/03 08:56:45;;;;;;;2.03;1.02;;;11.80;99.90;;;;;;5034675;28;20488;-72
2022/06/03 08:59:48;;;;;;;1.83;0.70;;;11.70;99.90;;;;;;5036094;28;20495;-74
2022/06/03 09:02:30;;;;;;;1.75;0.85;;;11.70;99.90;;;;;;5052634;28;20033;-71
2022/06/03 09:05:16;;;;;;;1.15;0.50;;;11.70;99.90;;;;;;5052035;28;20345;-71
2022/06/03 09:08:26;;;;;;;1.85;0.88;;;11.70;99.90;;;;;;5041787;28;20049;-72
2022/06/03 09:11:03;;;;;;;1.33;0.68;;;11.70;99.90;;;;;;5046999;28;20045;-74
2022/06/03 09:13:42;;;;;;;1.35;0.52;;;11.70;99.90;;;;;;5051849;28;20033;-73
2022/06/03 09:16:12;;;;;;;2.15;0.80;;;11.70;99.90;;;;;;5052005;28;20036;-74
2022/06/03 09:18:50;;;;;;;1.33;0.55;;;11.60;99.90;;;;;;5036145;28;20036;-73
2022/06/03 09:21:34;;;;;;;2.53;0.60;;;11.60;99.90;;;;;;5052868;28;20146;-73
2022/06/03 09:24:22;;;;;;;2.03;0.68;;;11.60;99.90;;;;;;5044642;28;20108;-73
2022/06/03 09:26:56;;;;;;;1.05;0.60;;;11.60;99.90;;;;;;5042643;28;20112;-73
2022/06/03 09:29:24;;;;;;;3.08;0.77;;;11.60;99.90;;;;;;5049633;28;20025;-74
2022/06/03 09:31:57;;;;;;;2.92;0.60;;;11.60;99.90;;;;;;5053356;28;20105;-73
2022/06/03 09:34:53;;;;;;;1.45;0.47;;;11.50;99.90;;;;;;5049246;28;20028;-73
2022/06/03 09:37:43;;;;;;;1.90;0.57;;;11.50;99.90;;;;;;5050719;28;20025;-72
2022/06/03 09:40:19;;;;;;;2.58;0.70;;;11.50;99.90;;;;;;5051173;28;20479;-72
2022/06/03 09:42:54;;;;;;;1.80;0.80;;;11.50;99.90;;;;;;5038517;28;20049;-74
2022/06/03 09:45:23;;;;;;;1.73;0.95;;;11.40;99.90;;;;;;5054720;28;20029;-73
2022/06/03 09:47:52;;;;;;;1.80;1.08;;;11.40;99.90;;;;;;5051934;28;20033;-73
2022/06/03 09:50:22;;;;;;;1.35;0.70;;;11.40;99.90;;;;;;5052863;28;20083;-74
2022/06/03 09:52:50;;;;;;;2.25;0.80;;;11.30;99.90;;;;;;5052014;28;20022;-74
2022/06/03 09:55:39;;;;;;;1.83;0.80;;;11.30;99.90;;;;;;5038507;28;20068;-73
2022/06/03 09:58:16;;;;;;;3.13;0.80;;;11.30;99.90;;;;;;5042256;28;20025;-73
2022/06/03 10:00:54;;;;;;;0.85;0.55;;;11.30;99.90;;;;;;5032889;28;20025;-76
2022/06/03 10:03:22;;;;;;;0.98;0.60;;;11.40;99.90;;;;;;5033609;28;20036;-79
2022/06/03 10:05:53;;;;;;;0.95;0.65;;;11.30;99.90;;;;;;5032501;28;20499;-77
2022/06/03 10:08:28;;;;;;;2.25;0.40;;;11.30;99.90;;;;;;5043407;28;20087;-77
2022/06/03 10:13:42;;;;;;;1.15;0.60;;;11.30;99.90;;;;;;5050552;28;20424;-73
2022/06/03 10:16:13;;;;;;;1.63;0.63;;;11.30;99.90;;;;;;5051748;28;20388;-77
2022/06/03 10:18:50;;;;;;;7.55;0.80;;;11.20;99.90;;;;;;5049158;28;20479;-78
2022/06/03 10:21:18;;;;;;;1.20;0.70;;;11.30;99.90;;;;;;5052365;28;20417;-77
2022/06/03 10:23:57;;;;;;;1.02;0.30;;;11.30;99.90;;;;;;5049797;28;20037;-74
2022/06/03 10:26:53;;;;;;;2.60;0.60;;;11.20;99.90;;;;;;5052281;28;20044;-75
2022/06/03 10:29:25;;;;;;;1.60;0.40;;;11.30;99.90;;;;;;5043091;28;20491;-78
2022/06/03 10:32:06;;;;;;;0.20;0.20;;;11.30;99.90;;;;;;5049022;28;20022;-73
2022/06/03 10:34:41;;;;;;;0.95;0.50;;;11.20;99.90;;;;;;5041765;28;20060;-75
2022/06/03 10:37:21;;;;;;;0.70;0.40;;;11.30;99.90;;;;;;5050387;28;20502;-75
2022/06/03 10:39:53;;;;;;;4.32;0.82;;;11.20;99.90;;;;;;5049144;28;20431;-75
2022/06/03 10:42:23;;;;;;;2.20;0.80;;;11.20;99.90;;;;;;5052083;28;20025;-75
2022/06/03 10:44:57;;;;;;;4.43;1.88;;;11.20;99.90;;;;;;5032195;28;20041;-75
2022/06/03 10:47:38;;;;;;;3.53;1.63;;;11.10;99.90;;;;;;5031689;28;20025;-76
2022/06/03 10:50:13;;;;;;;2.97;1.02;;;11.10;99.90;;;;;;5045535;28;20515;-75
2022/06/03 11:01:23;;;;;;;3.00;0.98;;;11.10;99.90;;;;;;5051441;28;20047;-75
2022/06/03 11:03:53;;;;;;;1.00;0.50;;;11.20;99.90;;;;;;5042817;28;20021;-76
2022/06/03 11:06:27;;;;;;;0.68;0.50;;;11.20;99.90;;;;;;5031363;28;20033;-75
2022/06/03 11:09:03;;;;;;;0.60;0.50;;;11.20;99.90;;;;;;5031018;28;20364;-75
2022/06/03 11:11:34;;;;;;;2.13;0.70;;;11.10;99.90;;;;;;5038104;28;20025;-75
2022/06/03 11:14:34;;;;;;;0.90;0.50;;;11.20;99.90;;;;;;5049762;28;20357;-75
2022/06/03 11:17:11;;;;;;;0.82;0.52;;;11.20;99.90;;;;;;5049816;28;20028;-75
2022/06/03 11:19:45;;;;;;;0.90;0.30;;;11.10;99.90;;;;;;5048603;28;20029;-75
2022/06/03 11:22:21;;;;;;;2.38;0.70;;;11.20;99.90;;;;;;5049533;28;20100;-75
2022/06/03 11:25:03;;;;;;;0.38;0.38;;;11.20;99.90;;;;;;5039738;28;20052;-75
2022/06/03 11:27:58;;;;;;;0.90;0.52;;;11.20;99.90;;;;;;5042244;28;20075;-75
2022/06/03 11:30:36;;;;;;;3.30;0.85;;;11.10;99.90;;;;;;5044682;28;20037;-75
2022/06/03 11:33:23;;;;;;;3.85;0.82;;;11.10;99.90;;;;;;5030836;28;20026;-75
2022/06/03 11:36:07;;;;;;;1.85;1.23;;;11.20;99.90;;;;;;5039010;28;20072;-75
2022/06/03 11:38:59;;;;;;;3.40;1.50;;;11.20;99.90;;;;;;5047036;28;20070;-75
2022/06/03 11:41:35;;;;;;;1.67;1.40;;;11.20;99.90;;;;;;5031528;28;20065;-75
2022/06/03 11:44:21;;;;;;;4.28;2.72;;;11.20;99.90;;;;;;5035961;28;20124;-75
2022/06/03 11:47:06;;;;;;;3.95;2.38;;;11.20;99.90;;;;;;5048672;28;20120;-75
2022/06/03 11:49:33;;;;;;;4.53;2.42;;;11.20;99.90;;;;;;5048833;28;20049;-75
2022/06/03 11:52:01;;;;;;;2.10;1.40;;;11.10;99.90;;;;;;5050460;28;20040;-75
2022/06/03 11:54:29;;;;;;;2.80;1.63;;;11.10;99.90;;;;;;5045319;28;20121;-74
2022/06/03 11:56:56;;;;;;;1.85;1.08;;;11.10;99.90;;;;;;5039177;28;20033;-75
2022/06/03 11:59:52;;;;;;;3.10;1.00;;;11.10;99.90;;;;;;5040686;28;20022;-75
2022/06/03 12:02:37;;;;;;;3.60;0.85;;;11.10;99.90;;;;;;5035382;28;20356;-75
2022/06/03 12:05:08;;;;;;;2.47;1.20;;;11.10;99.90;;;;;;5033781;28;20037;-75
2022/06/03 12:07:56;;;;;;;2.15;1.10;;;11.10;99.90;;;;;;5038114;28;20025;-75
2022/06/03 12:10:42;;;;;;;5.93;1.55;;;11.00;99.90;;;;;;5048929;28;20033;-75
2022/06/03 12:13:27;;;;;;;4.93;1.40;;;11.00;99.90;;;;;;5028370;28;20053;-74
2022/06/03 12:16:00;;;;;;;5.10;1.38;;;11.00;99.90;;;;;;5044725;28;20041;-75
2022/06/03 12:18:42;;;;;;;2.75;1.40;;;11.00;99.90;;;;;;5046082;28;20091;-74
2022/06/03 12:21:30;;;;;;;1.52;1.05;;;10.90;99.90;;;;;;5038128;28;20163;-75
2022/06/03 12:24:33;;;;;;;2.25;1.27;;;10.90;99.90;;;;;;5043486;28;20029;-75
2022/06/03 12:27:04;;;;;;;1.90;1.00;;;10.90;99.90;;;;;;5048046;28;20041;-74
2022/06/03 12:29:42;;;;;;;2.45;1.35;;;10.90;99.90;;;;;;5034102;28;20037;-75
2022/06/03 12:32:20;;;;;;;1.95;1.73;;;10.80;99.90;;;;;;5047078;28;20059;-72
2022/06/03 12:34:48;;;;;;;1.77;1.00;;;10.80;99.90;;;;;;5031812;28;20044;-74
2022/06/03 12:37:29;;;;;;;2.35;1.40;;;10.80;99.90;;;;;;5033164;28;20025;-74
2022/06/03 12:40:25;;;;;;;1.42;0.85;;;10.80;99.90;;;;;;5045378;28;20035;-75
2022/06/03 12:42:52;;;;;;;1.75;0.90;;;10.80;99.90;;;;;;5052115;28;20395;-77
2022/06/03 12:45:28;;;;;;;2.58;1.02;;;10.80;99.90;;;;;;5036992;28;20549;-78
2022/06/03 12:47:55;;;;;;;;;;;10.80;99.90;;;;;;5038376;28;20496;-77
2022/06/03 12:50:32;;;;;;;1.98;1.08;;;10.70;99.90;;;;;;5047505;28;19988;-77
2022/06/03 12:53:20;;;;;;;2.30;1.23;;;10.70;99.90;;;;;;5039667;28;20030;-75
2022/06/03 12:55:55;;;;;;;1.85;0.93;;;10.70;99.90;;;;;;5044876;28;20187;-72
2022/06/03 12:58:59;;;;;;;2.25;1.05;;;10.70;99.90;;;;;;5034541;28;20032;-76
2022/06/03 13:01:35;;;;;;;2.00;0.80;;;10.60;99.90;;;;;;5032889;28;20571;-74
2022/06/03 13:04:40;;;;;;;1.83;1.05;;;10.60;99.90;;;;;;5030367;28;20511;-74
2022/06/03 13:07:16;;;;;;;5.18;0.73;;;10.60;99.90;;;;;;5032931;28;20025;-75
2022/06/03 13:10:19;;;;;;;2.30;1.10;;;10.60;99.90;;;;;;5041433;28;20040;-75
2022/06/03 13:12:50;;;;;;;1.20;0.70;;;10.70;99.90;;;;;;5034171;28;20122;-76
2022/06/03 13:15:23;;;;;;;1.98;1.05;;;10.70;99.90;;;;;;5039577;28;20049;-75
2022/06/03 13:21:10;;;;;;;1.95;1.50;;;10.70;99.90;;;;;;5035460;28;20086;-73
2022/06/03 13:23:45;;;;;;;7.75;2.40;;;10.60;99.90;;;;;;5035513;28;20040;-74
2022/06/03 13:26:27;;;;;;;5.57;2.70;;;10.70;99.90;;;;;;5031952;28;20413;-76
2022/06/03 13:29:07;;;;;;;4.60;2.88;;;10.60;99.90;;;;;;5036968;28;20428;-78
2022/06/03 13:31:43;;;;;;;5.82;2.50;;;10.60;99.90;;;;;;5041306;28;20071;-78
2022/06/03 13:34:11;;;;;;;2.95;1.42;;;10.60;99.90;;;;;;5046296;28;20028;-76
2022/06/03 13:36:54;;;;;;;6.72;2.70;;;10.70;99.90;;;;;;5045516;28;20037;-74
2022/06/03 13:39:24;;;;;;;5.68;2.47;;;10.70;99.90;;;;;;5042987;28;20022;-76
2022/06/03 13:45:03;;;;;;;4.30;1.70;;;10.70;99.90;;;;;;5040859;28;20099;-75
2022/06/03 13:47:47;;;;;;;3.55;1.60;;;10.70;99.90;;;;;;5032543;28;20028;-76
2022/06/03 13:50:14;;;;;;;3.80;1.73;;;10.70;99.90;;;;;;5037987;28;20045;-76
2022/06/03 13:52:47;;;;;;;3.60;2.67;;;10.70;99.90;;;;;;5044240;28;20033;-76
2022/06/03 13:55:38;;;;;;;5.10;2.03;;;10.70;99.90;;;;;;5050842;28;20064;-76
2022/06/03 13:58:33;;;;;;;4.47;2.05;;;10.70;99.90;;;;;;5031575;28;20025;-76
2022/06/03 14:01:07;;;;;;;4.00;2.30;;;10.80;99.90;;;;;;5042339;28;20492;-74
2022/06/03 14:03:49;;;;;;;4.47;2.30;;;10.70;99.90;;;;;;5047902;28;20052;-75
2022/06/03 14:06:22;;;;;;;4.90;2.08;;;10.70;99.90;;;;;;5035032;28;20060;-75
2022/06/03 14:09:22;;;;;;;3.28;1.70;;;10.70;99.90;;;;;;5042481;28;20364;-76
2022/06/03 14:12:11;;;;;;;2.38;1.65;;;10.70;99.90;;;;;;5043568;28;20736;-74
2022/06/03 14:15:13;;;;;;;4.57;1.63;;;10.70;99.90;;;;;;5031000;28;20041;-74
2022/06/03 14:17:46;;;;;;;3.05;1.65;;;10.60;99.90;;;;;;5031240;28;20488;-74
2022/06/03 14:20:44;;;;;;;6.25;1.63;;;10.60;99.90;;;;;;5048741;28;20476;-74
2022/06/03 14:23:22;;;;;;;2.33;1.48;;;10.60;99.90;;;;;;5037031;28;20029;-74
2022/06/03 14:26:02;;;;;;;1.92;1.40;;;10.60;99.90;;;;;;5045254;28;20521;-73
2022/06/03 14:28:41;;;;;;;2.90;1.38;;;10.60;99.90;;;;;;5032588;28;20060;-74
2022/06/03 14:31:17;;;;;;;2.90;1.90;;;10.60;99.90;;;;;;5047505;28;20107;-75
2022/06/03 14:33:50;;;;;;;3.00;1.73;;;10.50;99.90;;;;;;5031070;28;20056;-74
2022/06/03 14:36:18;;;;;;;4.95;2.00;;;10.40;99.90;;;;;;5034274;28;20460;-76
2022/06/03 14:39:10;;;;;;;3.65;1.45;;;10.40;99.90;;;;;;5049521;28;20111;-76